createdAt,value
2016-11-04T00:00:47.940Z,0
2016-11-04T00:01:47.899Z,0
2016-11-04T00:02:47.580Z,0
2016-11-04T00:03:47.547Z,0
2016-11-04T00:04:47.461Z,0
2016-11-04T00:05:47.725Z,0
2016-11-04T00:06:47.684Z,0
2016-11-04T00:07:47.341Z,0
2016-11-04T00:08:47.303Z,0
2016-11-04T00:09:47.559Z,0
2016-11-04T00:10:47.220Z,0
2016-11-04T00:11:47.515Z,0
2016-11-04T00:12:47.437Z,0
2016-11-04T00:13:46.799Z,0
2016-11-04T00:14:47.056Z,0
2016-11-04T00:15:47.310Z,0
2016-11-04T00:16:47.282Z,0
2016-11-04T00:17:46.929Z,0
2016-11-04T00:18:47.181Z,0
2016-11-04T00:19:46.841Z,0
2016-11-04T00:20:47.104Z,0
2016-11-04T00:21:46.759Z,0
2016-11-04T00:22:47.019Z,0
2016-11-04T00:23:46.976Z,0
2016-11-04T00:24:46.335Z,0
2016-11-04T00:25:46.893Z,0
2016-11-04T00:26:46.850Z,0
2016-11-04T00:27:46.502Z,0
2016-11-04T00:28:46.467Z,0
2016-11-04T00:29:46.748Z,0
2016-11-04T00:30:46.701Z,0
2016-11-04T00:31:46.644Z,0
2016-11-04T00:32:46.616Z,0
2016-11-04T00:33:46.556Z,0
2016-11-04T00:34:46.519Z,0
2016-11-04T00:35:46.478Z,0
2016-11-04T00:36:46.436Z,0
2016-11-04T00:37:46.405Z,0
2016-11-04T00:38:46.052Z,0
2016-11-04T00:39:46.310Z,0
2016-11-04T00:40:46.307Z,0
2016-11-04T00:41:45.931Z,0
2016-11-04T00:42:45.282Z,0
2016-11-04T00:43:46.140Z,0
2016-11-04T00:44:46.104Z,0
2016-11-04T00:45:46.060Z,0
2016-11-04T00:46:46.031Z,0
2016-11-04T00:47:45.982Z,0
2016-11-04T00:48:45.333Z,0
2016-11-04T00:49:45.590Z,0
2016-11-04T00:50:45.851Z,0
2016-11-04T00:51:45.801Z,0
2016-11-04T00:52:45.775Z,0
2016-11-04T00:53:45.425Z,0
2016-11-04T00:54:45.079Z,0
2016-11-04T00:55:45.041Z,0
2016-11-04T00:56:45.302Z,0
2016-11-04T00:57:45.570Z,0
2016-11-04T00:58:45.518Z,0
2016-11-04T00:59:45.479Z,0
2016-11-04T01:00:45.129Z,0
2016-11-04T01:01:45.388Z,0
2016-11-04T01:02:45.352Z,0
2016-11-04T01:03:44.706Z,0
2016-11-04T01:04:44.972Z,0
2016-11-04T01:05:45.251Z,0
2016-11-04T01:06:45.178Z,0
2016-11-04T01:07:45.144Z,0
2016-11-04T01:08:44.800Z,0
2016-11-04T01:09:44.756Z,0
2016-11-04T01:10:44.420Z,0
2016-11-04T01:11:44.372Z,0
2016-11-04T01:12:44.632Z,0
2016-11-04T01:13:44.893Z,0
2016-11-04T01:14:44.549Z,0
2016-11-04T01:15:44.809Z,0
2016-11-04T01:16:44.793Z,0
2016-11-04T01:17:44.728Z,0
2016-11-04T01:18:44.397Z,0
2016-11-04T01:19:44.377Z,0
2016-11-04T01:20:44.643Z,0
2016-11-04T01:21:44.249Z,0
2016-11-04T01:22:44.512Z,0
2016-11-04T01:23:44.473Z,0
2016-11-04T01:24:44.424Z,0
2016-11-04T01:25:44.383Z,0
2016-11-04T01:26:44.346Z,0
2016-11-04T01:27:44.304Z,0
2016-11-04T01:28:43.661Z,0
2016-11-04T01:29:44.217Z,0
2016-11-04T01:30:43.873Z,0
2016-11-04T01:31:44.174Z,0
2016-11-04T01:32:43.830Z,0
2016-11-04T01:33:43.455Z,0
2016-11-04T01:34:44.016Z,0
2016-11-04T01:35:43.983Z,0
2016-11-04T01:36:43.926Z,0
2016-11-04T01:37:43.581Z,0
2016-11-04T01:38:43.541Z,0
2016-11-04T01:39:43.193Z,0
2016-11-04T01:40:43.759Z,0
2016-11-04T01:41:43.765Z,0
2016-11-04T01:42:43.675Z,0
2016-11-04T01:43:43.683Z,0
2016-11-04T01:44:43.590Z,0
2016-11-04T01:45:43.549Z,0
2016-11-04T01:46:43.205Z,0
2016-11-04T01:47:43.163Z,0
2016-11-04T01:48:43.420Z,0
2016-11-04T01:49:43.385Z,0
2016-11-04T01:50:42.739Z,0
2016-11-04T01:51:43.291Z,0
2016-11-04T01:52:43.257Z,0
2016-11-04T01:53:42.311Z,0
2016-11-04T01:54:43.182Z,0
2016-11-04T01:55:43.160Z,0
2016-11-04T01:56:43.087Z,0
2016-11-04T01:57:43.053Z,0
2016-11-04T01:58:43.005Z,0
2016-11-04T01:59:42.959Z,0
2016-11-04T02:00:42.621Z,0
2016-11-04T02:01:42.574Z,0
2016-11-04T02:02:42.836Z,0
2016-11-04T02:03:42.793Z,0
2016-11-04T02:04:42.484Z,0
2016-11-04T02:05:42.413Z,0
2016-11-04T02:06:42.062Z,0
2016-11-04T02:07:42.624Z,0
2016-11-04T02:08:42.283Z,0
2016-11-04T02:09:41.937Z,0
2016-11-04T02:10:42.491Z,0
2016-11-04T02:11:42.454Z,0
2016-11-04T02:12:42.412Z,0
2016-11-04T02:13:42.374Z,0
2016-11-04T02:14:42.325Z,0
2016-11-04T02:15:41.987Z,0
2016-11-04T02:16:42.253Z,0
2016-11-04T02:17:41.933Z,0
2016-11-04T02:18:42.169Z,0
2016-11-04T02:19:42.121Z,0
2016-11-04T02:20:42.073Z,0
2016-11-04T02:21:42.031Z,0
2016-11-04T02:22:41.988Z,0
2016-11-04T02:23:41.954Z,0
2016-11-04T02:24:41.915Z,0
2016-11-04T02:25:41.871Z,0
2016-11-04T02:26:41.215Z,0
2016-11-04T02:27:41.777Z,0
2016-11-04T02:28:41.138Z,0
2016-11-04T02:29:41.391Z,0
2016-11-04T02:30:41.652Z,0
2016-11-04T02:31:41.303Z,0
2016-11-04T02:32:41.573Z,0
2016-11-04T02:33:41.524Z,0
2016-11-04T02:34:41.224Z,0
2016-11-04T02:35:41.453Z,0
2016-11-04T02:36:41.404Z,0
2016-11-04T02:37:41.062Z,0
2016-11-04T02:38:41.314Z,0
2016-11-04T02:39:41.288Z,0
2016-11-04T02:40:41.226Z,0
2016-11-04T02:41:41.192Z,0
2016-11-04T02:42:41.185Z,0
2016-11-04T02:43:41.105Z,0
2016-11-04T02:44:41.075Z,0
2016-11-04T02:45:40.725Z,0
2016-11-04T02:46:40.693Z,0
2016-11-04T02:47:40.680Z,0
2016-11-04T02:48:40.891Z,0
2016-11-04T02:49:40.588Z,0
2016-11-04T02:50:40.811Z,0
2016-11-04T02:51:40.766Z,0
2016-11-04T02:52:40.723Z,0
2016-11-04T02:53:40.684Z,0
2016-11-04T02:54:40.641Z,0
2016-11-04T02:55:40.602Z,0
2016-11-04T02:56:40.293Z,0
2016-11-04T02:57:40.553Z,0
2016-11-04T02:58:40.472Z,0
2016-11-04T02:59:40.438Z,0
2016-11-04T03:00:40.089Z,0
2016-11-04T03:01:40.044Z,0
2016-11-04T03:02:40.303Z,0
2016-11-04T03:03:40.294Z,0
2016-11-04T03:04:40.222Z,0
2016-11-04T03:05:40.186Z,0
2016-11-04T03:06:39.538Z,0
2016-11-04T03:07:39.486Z,0
2016-11-04T03:08:40.057Z,0
2016-11-04T03:09:39.713Z,0
2016-11-04T03:10:39.969Z,0
2016-11-04T03:11:39.937Z,0
2016-11-04T03:12:39.878Z,0
2016-11-04T03:13:39.540Z,0
2016-11-04T03:14:39.802Z,0
2016-11-04T03:15:39.753Z,0
2016-11-04T03:16:39.712Z,0
2016-11-04T03:17:39.375Z,0
2016-11-04T03:18:39.627Z,0
2016-11-04T03:19:39.286Z,0
2016-11-04T03:20:39.546Z,0
2016-11-04T03:21:39.203Z,0
2016-11-04T03:22:39.459Z,0
2016-11-04T03:23:39.421Z,0
2016-11-04T03:24:39.376Z,0
2016-11-04T03:25:39.326Z,0
2016-11-04T03:26:39.293Z,0
2016-11-04T03:27:39.468Z,0
2016-11-04T03:28:38.904Z,0
2016-11-04T03:29:39.164Z,0
2016-11-04T03:30:39.116Z,0
2016-11-04T03:31:39.075Z,0
2016-11-04T03:32:39.038Z,0
2016-11-04T03:33:38.689Z,0
2016-11-04T03:34:38.653Z,0
2016-11-04T03:35:38.914Z,0
2016-11-04T03:36:38.616Z,0
2016-11-04T03:37:38.519Z,0
2016-11-04T03:38:38.785Z,0
2016-11-04T03:39:38.435Z,0
2016-11-04T03:40:38.395Z,0
2016-11-04T03:41:38.663Z,0
2016-11-04T03:42:38.313Z,0
2016-11-04T03:43:38.264Z,0
2016-11-04T03:44:38.256Z,0
2016-11-04T03:45:38.529Z,0
2016-11-04T03:46:38.138Z,0
2016-11-04T03:47:38.099Z,0
2016-11-04T03:48:38.057Z,0
2016-11-04T03:49:38.319Z,0
2016-11-04T03:50:38.280Z,0
2016-11-04T03:51:38.260Z,0
2016-11-04T03:52:38.219Z,0
2016-11-04T03:53:38.151Z,0
2016-11-04T03:54:37.795Z,0
2016-11-04T03:55:38.065Z,0
2016-11-04T03:56:38.019Z,0
2016-11-04T03:57:37.980Z,0
2016-11-04T03:58:37.939Z,0
2016-11-04T03:59:37.585Z,0
2016-11-04T04:00:37.549Z,0
2016-11-04T04:01:37.808Z,0
2016-11-04T04:02:37.459Z,0
2016-11-04T04:03:37.719Z,0
2016-11-04T04:04:37.675Z,0
2016-11-04T04:05:37.635Z,0
2016-11-04T04:06:37.290Z,0
2016-11-04T04:07:36.643Z,0
2016-11-04T04:08:37.205Z,0
2016-11-04T04:09:36.890Z,0
2016-11-04T04:10:37.424Z,0
2016-11-04T04:11:37.380Z,0
2016-11-04T04:12:37.341Z,0
2016-11-04T04:13:37.294Z,0
2016-11-04T04:14:36.660Z,0
2016-11-04T04:15:36.301Z,0
2016-11-04T04:16:36.863Z,0
2016-11-04T04:17:36.861Z,0
2016-11-04T04:18:37.079Z,0
2016-11-04T04:19:37.039Z,0
2016-11-04T04:20:36.995Z,0
2016-11-04T04:21:36.345Z,0
2016-11-04T04:22:36.612Z,0
2016-11-04T04:23:36.869Z,0
2016-11-04T04:24:36.528Z,0
2016-11-04T04:25:36.816Z,0
2016-11-04T04:26:36.155Z,0
2016-11-04T04:27:36.402Z,0
2016-11-04T04:28:36.060Z,0
2016-11-04T04:29:36.352Z,0
2016-11-04T04:30:36.269Z,0
2016-11-04T04:31:36.564Z,0
2016-11-04T04:32:36.484Z,0
2016-11-04T04:33:36.447Z,0
2016-11-04T04:34:36.102Z,0
2016-11-04T04:35:36.059Z,0
2016-11-04T04:36:36.324Z,0
2016-11-04T04:37:36.286Z,0
2016-11-04T04:38:36.233Z,0
2016-11-04T04:39:36.193Z,0
2016-11-04T04:40:36.141Z,0
2016-11-04T04:41:36.149Z,0
2016-11-04T04:42:36.065Z,0
2016-11-04T04:43:35.750Z,0
2016-11-04T04:44:35.680Z,0
2016-11-04T04:45:35.969Z,0
2016-11-04T04:46:35.626Z,0
2016-11-04T04:47:35.547Z,0
2016-11-04T04:48:35.814Z,0
2016-11-04T04:49:35.476Z,0
2016-11-04T04:50:35.121Z,0
2016-11-04T04:51:35.380Z,0
2016-11-04T04:52:35.643Z,0
2016-11-04T04:53:35.598Z,0
2016-11-04T04:54:35.553Z,0
2016-11-04T04:55:35.521Z,0
2016-11-04T04:56:35.173Z,0
2016-11-04T04:57:34.832Z,0
2016-11-04T04:58:35.084Z,0
2016-11-04T04:59:35.044Z,0
2016-11-04T05:00:35.295Z,0
2016-11-04T05:01:35.260Z,0
2016-11-04T05:02:34.914Z,0
2016-11-04T05:03:35.231Z,0
2016-11-04T05:04:35.127Z,0
2016-11-04T05:05:34.479Z,0
2016-11-04T05:06:35.044Z,0
2016-11-04T05:07:34.388Z,0
2016-11-04T05:08:34.068Z,0
2016-11-04T05:09:34.911Z,0
2016-11-04T05:10:34.871Z,0
2016-11-04T05:11:34.232Z,0
2016-11-04T05:12:34.788Z,0
2016-11-04T05:13:34.465Z,0
2016-11-04T05:14:34.705Z,0
2016-11-04T05:15:34.663Z,0
2016-11-04T05:16:34.622Z,0
2016-11-04T05:17:34.574Z,0
2016-11-04T05:18:34.229Z,0
2016-11-04T05:19:34.489Z,0
2016-11-04T05:20:34.146Z,0
2016-11-04T05:21:34.411Z,0
2016-11-04T05:22:34.061Z,0
2016-11-04T05:23:34.320Z,0
2016-11-04T05:24:34.281Z,0
2016-11-04T05:25:34.242Z,0
2016-11-04T05:26:33.589Z,0
2016-11-04T05:27:34.159Z,0
2016-11-04T05:28:34.107Z,0
2016-11-04T05:29:33.471Z,0
2016-11-04T05:30:34.063Z,0
2016-11-04T05:31:33.990Z,0
2016-11-04T05:32:33.640Z,0
2016-11-04T05:33:33.596Z,0
2016-11-04T05:34:33.272Z,0
2016-11-04T05:35:33.209Z,0
2016-11-04T05:36:33.475Z,0
2016-11-04T05:37:33.131Z,0
2016-11-04T05:38:33.388Z,0
2016-11-04T05:39:33.645Z,0
2016-11-04T05:40:33.301Z,0
2016-11-04T05:41:33.596Z,0
2016-11-04T05:42:33.525Z,0
2016-11-04T05:43:33.484Z,0
2016-11-04T05:44:33.138Z,0
2016-11-04T05:45:33.399Z,0
2016-11-04T05:46:33.055Z,0
2016-11-04T05:47:33.013Z,0
2016-11-04T05:48:32.663Z,0
2016-11-04T05:49:32.320Z,0
2016-11-04T05:50:33.180Z,0
2016-11-04T05:51:32.541Z,0
2016-11-04T05:52:33.105Z,0
2016-11-04T05:53:33.059Z,0
2016-11-04T05:54:33.019Z,0
2016-11-04T05:55:32.672Z,0
2016-11-04T05:56:32.937Z,0
2016-11-04T05:57:32.596Z,0
2016-11-04T05:58:32.857Z,0
2016-11-04T05:59:32.808Z,0
2016-11-04T06:00:32.458Z,0
2016-11-04T06:01:32.425Z,0
2016-11-04T06:02:32.379Z,0
2016-11-04T06:03:32.641Z,0
2016-11-04T06:04:31.994Z,0
2016-11-04T06:05:32.558Z,0
2016-11-04T06:06:32.510Z,0
2016-11-04T06:07:32.483Z,0
2016-11-04T06:08:32.433Z,0
2016-11-04T06:09:32.122Z,0
2016-11-04T06:10:32.061Z,0
2016-11-04T06:11:32.316Z,0
2016-11-04T06:12:31.968Z,0
2016-11-04T06:13:32.225Z,0
2016-11-04T06:14:31.885Z,0
2016-11-04T06:15:31.532Z,0
2016-11-04T06:16:31.790Z,0
2016-11-04T06:17:31.446Z,5
2016-11-04T06:18:31.714Z,5
2016-11-04T06:19:31.995Z,5
2016-11-04T06:20:31.635Z,5
2016-11-04T06:21:31.589Z,5
2016-11-04T06:22:31.241Z,5
2016-11-04T06:23:31.803Z,5
2016-11-04T06:24:31.474Z,10
2016-11-04T06:25:31.730Z,10
2016-11-04T06:26:31.381Z,10
2016-11-04T06:27:31.035Z,10
2016-11-04T06:28:31.302Z,10
2016-11-04T06:29:30.965Z,10
2016-11-04T06:30:31.212Z,10
2016-11-04T06:31:31.171Z,10
2016-11-04T06:32:31.437Z,10
2016-11-04T06:33:31.390Z,10
2016-11-04T06:34:31.350Z,15
2016-11-04T06:35:31.343Z,15
2016-11-04T06:36:30.663Z,15
2016-11-04T06:37:30.938Z,15
2016-11-04T06:38:30.620Z,15
2016-11-04T06:39:31.145Z,15
2016-11-04T06:40:31.111Z,15
2016-11-04T06:41:30.757Z,20
2016-11-04T06:42:31.025Z,20
2016-11-04T06:43:30.677Z,20
2016-11-04T06:44:30.641Z,20
2016-11-04T06:45:30.910Z,20
2016-11-04T06:46:30.857Z,20
2016-11-04T06:47:30.518Z,25
2016-11-04T06:48:30.478Z,25
2016-11-04T06:49:30.731Z,25
2016-11-04T06:50:30.702Z,20
2016-11-04T06:51:30.652Z,20
2016-11-04T06:52:30.608Z,20
2016-11-04T06:53:29.726Z,20
2016-11-04T06:54:30.521Z,25
2016-11-04T06:55:30.184Z,25
2016-11-04T06:56:30.438Z,25
2016-11-04T06:57:30.404Z,25
2016-11-04T06:58:29.753Z,25
2016-11-04T06:59:30.017Z,25
2016-11-04T07:00:29.672Z,25
2016-11-04T07:01:29.649Z,30
2016-11-04T07:02:30.203Z,30
2016-11-04T07:03:29.853Z,30
2016-11-04T07:04:29.835Z,30
2016-11-04T07:05:29.773Z,30
2016-11-04T07:06:30.027Z,35
2016-11-04T07:07:29.384Z,40
2016-11-04T07:08:29.339Z,45
2016-11-04T07:09:29.346Z,45
2016-11-04T07:10:29.570Z,45
2016-11-04T07:11:29.519Z,45
2016-11-04T07:12:29.180Z,50
2016-11-04T07:13:29.441Z,50
2016-11-04T07:14:29.401Z,50
2016-11-04T07:15:29.654Z,45
2016-11-04T07:16:29.311Z,45
2016-11-04T07:17:29.589Z,50
2016-11-04T07:18:29.543Z,50
2016-11-04T07:19:28.887Z,50
2016-11-04T07:20:29.152Z,45
2016-11-04T07:21:29.108Z,45
2016-11-04T07:22:29.099Z,45
2016-11-04T07:23:29.026Z,50
2016-11-04T07:24:28.996Z,50
2016-11-04T07:25:29.251Z,55
2016-11-04T07:26:28.904Z,60
2016-11-04T07:27:29.173Z,60
2016-11-04T07:28:29.123Z,65
2016-11-04T07:29:28.779Z,60
2016-11-04T07:30:29.045Z,55
2016-11-04T07:31:28.700Z,80
2016-11-04T07:32:28.655Z,85
2016-11-04T07:33:28.613Z,85
2016-11-04T07:34:28.879Z,85
2016-11-04T07:35:28.842Z,80
2016-11-04T07:36:28.194Z,85
2016-11-04T07:37:28.151Z,85
2016-11-04T07:38:29.038Z,85
2016-11-04T07:39:28.377Z,80
2016-11-04T07:40:28.338Z,70
2016-11-04T07:41:28.589Z,65
2016-11-04T07:42:28.557Z,60
2016-11-04T07:43:28.213Z,55
2016-11-04T07:44:28.476Z,65
2016-11-04T07:45:28.434Z,65
2016-11-04T07:46:27.791Z,60
2016-11-04T07:47:28.363Z,55
2016-11-04T07:48:28.017Z,55
2016-11-04T07:49:27.965Z,65
2016-11-04T07:50:28.232Z,60
2016-11-04T07:51:27.586Z,65
2016-11-04T07:52:27.547Z,70
2016-11-04T07:53:27.809Z,65
2016-11-04T07:54:27.764Z,85
2016-11-04T07:55:27.134Z,90
2016-11-04T07:56:27.684Z,90
2016-11-04T07:57:27.946Z,95
2016-11-04T07:58:27.599Z,95
2016-11-04T07:59:27.861Z,90
2016-11-04T08:00:27.527Z,90
2016-11-04T08:01:27.519Z,85
2016-11-04T08:02:27.141Z,85
2016-11-04T08:03:27.398Z,90
2016-11-04T08:04:27.659Z,95
2016-11-04T08:05:27.033Z,95
2016-11-04T08:06:27.579Z,95
2016-11-04T08:07:27.245Z,95
2016-11-04T08:08:26.899Z,100
2016-11-04T08:09:27.160Z,100
2016-11-04T08:10:26.822Z,100
2016-11-04T08:11:27.384Z,100
2016-11-04T08:12:27.344Z,105
2016-11-04T08:13:26.407Z,110
2016-11-04T08:14:26.964Z,105
2016-11-04T08:15:27.228Z,105
2016-11-04T08:16:26.589Z,105
2016-11-04T08:17:26.887Z,105
2016-11-04T08:18:26.801Z,110
2016-11-04T08:19:26.762Z,120
2016-11-04T08:20:27.048Z,125
2016-11-04T08:21:26.678Z,120
2016-11-04T08:22:26.642Z,110
2016-11-04T08:23:26.919Z,110
2016-11-04T08:24:26.863Z,110
2016-11-04T08:25:26.524Z,105
2016-11-04T08:26:26.517Z,105
2016-11-04T08:27:26.747Z,110
2016-11-04T08:28:26.406Z,110
2016-11-04T08:29:26.670Z,110
2016-11-04T08:30:26.323Z,115
2016-11-04T08:31:26.285Z,130
2016-11-04T08:32:26.549Z,120
2016-11-04T08:33:26.213Z,90
2016-11-04T08:34:26.468Z,100
2016-11-04T08:35:26.132Z,110
2016-11-04T08:36:26.386Z,110
2016-11-04T08:37:26.348Z,90
2016-11-04T08:38:25.721Z,70
2016-11-04T08:39:25.665Z,70
2016-11-04T08:40:26.229Z,90
2016-11-04T08:41:26.208Z,75
2016-11-04T08:42:25.845Z,75
2016-11-04T08:43:25.817Z,85
2016-11-04T08:44:26.070Z,95
2016-11-04T08:45:25.733Z,95
2016-11-04T08:46:25.724Z,95
2016-11-04T08:47:25.654Z,100
2016-11-04T08:48:25.918Z,95
2016-11-04T08:49:25.891Z,90
2016-11-04T08:50:25.536Z,75
2016-11-04T08:51:25.807Z,70
2016-11-04T08:52:24.856Z,95
2016-11-04T08:53:25.729Z,105
2016-11-04T08:54:25.081Z,105
2016-11-04T08:55:25.653Z,110
2016-11-04T08:56:25.605Z,105
2016-11-04T08:57:24.661Z,125
2016-11-04T08:58:24.916Z,130
2016-11-04T08:59:24.911Z,145
2016-11-04T09:00:25.147Z,150
2016-11-04T09:01:24.805Z,130
2016-11-04T09:02:24.764Z,135
2016-11-04T09:03:25.030Z,145
2016-11-04T09:04:24.685Z,135
2016-11-04T09:05:25.256Z,140
2016-11-04T09:06:24.608Z,120
2016-11-04T09:07:24.569Z,105
2016-11-04T09:08:25.139Z,100
2016-11-04T09:09:24.790Z,115
2016-11-04T09:10:25.049Z,120
2016-11-04T09:11:25.020Z,125
2016-11-04T09:12:24.710Z,110
2016-11-04T09:13:24.940Z,115
2016-11-04T09:14:23.999Z,115
2016-11-04T09:15:24.256Z,120
2016-11-04T09:16:24.217Z,130
2016-11-04T09:17:24.786Z,145
2016-11-04T09:18:24.510Z,160
2016-11-04T09:19:24.100Z,165
2016-11-04T09:20:24.363Z,155
2016-11-04T09:21:24.323Z,140
2016-11-04T09:22:24.618Z,135
2016-11-04T09:23:24.556Z,140
2016-11-04T09:24:24.214Z,150
2016-11-04T09:25:24.172Z,165
2016-11-04T09:26:24.439Z,170
2016-11-04T09:27:24.092Z,155
2016-11-04T09:28:24.061Z,145
2016-11-04T09:29:24.025Z,150
2016-11-04T09:30:24.292Z,155
2016-11-04T09:31:23.946Z,155
2016-11-04T09:32:24.239Z,150
2016-11-04T09:33:23.862Z,155
2016-11-04T09:34:24.133Z,155
2016-11-04T09:35:24.099Z,175
2016-11-04T09:36:23.447Z,180
2016-11-04T09:37:23.708Z,210
2016-11-04T09:38:23.675Z,245
2016-11-04T09:39:23.965Z,295
2016-11-04T09:40:23.901Z,350
2016-11-04T09:41:23.866Z,410
2016-11-04T09:42:23.215Z,475
2016-11-04T09:43:23.189Z,750
2016-11-04T09:44:23.140Z,660
2016-11-04T09:45:23.409Z,560
2016-11-04T09:46:23.368Z,565
2016-11-04T09:47:23.363Z,505
2016-11-04T09:48:22.993Z,490
2016-11-04T09:49:23.555Z,430
2016-11-04T09:50:23.515Z,475
2016-11-04T09:51:23.483Z,460
2016-11-04T09:52:23.144Z,410
2016-11-04T09:53:23.107Z,470
2016-11-04T09:54:23.090Z,500
2016-11-04T09:55:22.758Z,475
2016-11-04T09:56:23.303Z,575
2016-11-04T09:57:23.274Z,480
2016-11-04T09:58:22.952Z,440
2016-11-04T09:59:23.192Z,420
2016-11-04T10:00:23.186Z,395
2016-11-04T10:01:23.147Z,405
2016-11-04T10:02:22.485Z,390
2016-11-04T10:03:23.050Z,395
2016-11-04T10:04:22.407Z,415
2016-11-04T10:05:22.985Z,435
2016-11-04T10:06:22.943Z,435
2016-11-04T10:07:22.604Z,470
2016-11-04T10:08:22.876Z,465
2016-11-04T10:09:22.546Z,530
2016-11-04T10:10:22.807Z,585
2016-11-04T10:11:22.769Z,565
2016-11-04T10:12:21.835Z,545
2016-11-04T10:13:22.703Z,535
2016-11-04T10:14:22.363Z,585
2016-11-04T10:15:22.371Z,585
2016-11-04T10:16:21.983Z,520
2016-11-04T10:17:21.644Z,530
2016-11-04T10:18:22.522Z,535
2016-11-04T10:19:22.181Z,575
2016-11-04T10:20:21.849Z,600
2016-11-04T10:21:22.420Z,590
2016-11-04T10:22:22.399Z,625
2016-11-04T10:23:22.376Z,610
2016-11-04T10:24:22.344Z,605
2016-11-04T10:25:21.976Z,605
2016-11-04T10:26:22.243Z,745
2016-11-04T10:27:21.301Z,795
2016-11-04T10:28:22.173Z,755
2016-11-04T10:29:21.843Z,680
2016-11-04T10:30:22.111Z,680
2016-11-04T10:31:21.770Z,600
2016-11-04T10:32:22.069Z,600
2016-11-04T10:33:21.702Z,595
2016-11-04T10:34:21.680Z,675
2016-11-04T10:35:21.334Z,840
2016-11-04T10:36:21.602Z,860
2016-11-04T10:37:21.578Z,835
2016-11-04T10:38:21.242Z,785
2016-11-04T10:39:21.816Z,750
2016-11-04T10:40:21.786Z,670
2016-11-04T10:41:21.445Z,755
2016-11-04T10:42:21.414Z,760
2016-11-04T10:43:21.693Z,770
2016-11-04T10:44:21.053Z,760
2016-11-04T10:45:21.408Z,750
2016-11-04T10:46:21.300Z,815
2016-11-04T10:47:21.266Z,1000
2016-11-04T10:48:21.541Z,1140
2016-11-04T10:49:21.210Z,1225
2016-11-04T10:50:21.177Z,865
2016-11-04T10:51:21.143Z,1100
2016-11-04T10:52:21.427Z,1175
2016-11-04T10:53:20.790Z,1180
2016-11-04T10:54:21.400Z,1220
2016-11-04T10:55:20.742Z,1180
2016-11-04T10:56:21.012Z,1170
2016-11-04T10:57:20.675Z,1235
2016-11-04T10:58:20.775Z,1115
2016-11-04T10:59:21.215Z,980
2016-11-04T11:00:21.186Z,765
2016-11-04T11:01:21.160Z,645
2016-11-04T11:02:21.128Z,615
2016-11-04T11:03:20.800Z,570
2016-11-04T11:04:20.781Z,545
2016-11-04T11:05:21.047Z,520
2016-11-04T11:06:21.016Z,535
2016-11-04T11:07:20.385Z,545
2016-11-04T11:08:20.952Z,590
2016-11-04T11:09:20.633Z,615
2016-11-04T11:10:20.906Z,635
2016-11-04T11:11:20.884Z,635
2016-11-04T11:12:20.906Z,610
2016-11-04T11:13:20.518Z,600
2016-11-04T11:14:20.797Z,635
2016-11-04T11:15:20.751Z,645
2016-11-04T11:16:20.719Z,1015
2016-11-04T11:17:20.389Z,1490
2016-11-04T11:18:20.659Z,1500
2016-11-04T11:19:20.627Z,1135
2016-11-04T11:20:19.997Z,595
2016-11-04T11:21:19.662Z,430
2016-11-04T11:22:20.549Z,410
2016-11-04T11:23:20.211Z,395
2016-11-04T11:24:20.481Z,375
2016-11-04T11:25:20.155Z,370
2016-11-04T11:26:20.430Z,370
2016-11-04T11:27:20.102Z,355
2016-11-04T11:28:19.771Z,355
2016-11-04T11:29:20.040Z,350
2016-11-04T11:30:20.013Z,340
2016-11-04T11:31:19.977Z,330
2016-11-04T11:32:19.976Z,325
2016-11-04T11:33:19.621Z,315
2016-11-04T11:34:18.974Z,315
2016-11-04T11:35:20.171Z,310
2016-11-04T11:36:20.116Z,300
2016-11-04T11:37:19.784Z,295
2016-11-04T11:38:20.045Z,295
2016-11-04T11:39:19.406Z,285
2016-11-04T11:40:19.385Z,285
2016-11-04T11:41:19.989Z,285
2016-11-04T11:42:19.605Z,280
2016-11-04T11:43:19.883Z,280
2016-11-04T11:44:19.562Z,275
2016-11-04T11:45:19.512Z,270
2016-11-04T11:46:19.789Z,265
2016-11-04T11:47:19.458Z,255
2016-11-04T11:48:19.712Z,240
2016-11-04T11:49:19.391Z,240
2016-11-04T11:50:19.362Z,230
2016-11-04T11:51:19.306Z,225
2016-11-04T11:52:18.674Z,235
2016-11-04T11:53:19.250Z,230
2016-11-04T11:54:19.242Z,230
2016-11-04T11:55:19.479Z,240
2016-11-04T11:56:19.450Z,245
2016-11-04T11:57:18.802Z,250
2016-11-04T11:58:19.076Z,250
2016-11-04T11:59:19.046Z,250
2016-11-04T12:00:19.012Z,250
2016-11-04T12:01:18.970Z,240
2016-11-04T12:02:18.631Z,245
2016-11-04T12:03:18.897Z,245
2016-11-04T12:04:19.165Z,250
2016-11-04T12:05:18.831Z,245
2016-11-04T12:06:18.795Z,240
2016-11-04T12:07:19.055Z,225
2016-11-04T12:08:18.727Z,220
2016-11-04T12:09:18.389Z,215
2016-11-04T12:10:18.991Z,215
2016-11-04T12:11:18.618Z,205
2016-11-04T12:12:18.281Z,200
2016-11-04T12:13:18.851Z,195
2016-11-04T12:14:18.513Z,190
2016-11-04T12:15:18.780Z,180
2016-11-04T12:16:18.747Z,175
2016-11-04T12:17:18.711Z,190
2016-11-04T12:18:18.106Z,180
2016-11-04T12:19:18.642Z,180
2016-11-04T12:20:18.001Z,185
2016-11-04T12:21:18.572Z,195
2016-11-04T12:22:17.927Z,195
2016-11-04T12:23:18.613Z,190
2016-11-04T12:24:18.463Z,195
2016-11-04T12:25:18.126Z,190
2016-11-04T12:26:18.396Z,190
2016-11-04T12:27:18.049Z,190
2016-11-04T12:28:17.711Z,190
2016-11-04T12:29:17.980Z,205
2016-11-04T12:30:17.645Z,200
2016-11-04T12:31:18.213Z,205
2016-11-04T12:32:17.875Z,205
2016-11-04T12:33:18.140Z,210
2016-11-04T12:34:17.798Z,205
2016-11-04T12:35:17.470Z,210
2016-11-04T12:36:18.033Z,210
2016-11-04T12:37:17.396Z,210
2016-11-04T12:38:17.953Z,215
2016-11-04T12:39:17.318Z,220
2016-11-04T12:40:17.583Z,225
2016-11-04T12:41:17.249Z,235
2016-11-04T12:42:17.508Z,245
2016-11-04T12:43:17.780Z,245
2016-11-04T12:44:17.761Z,235
2016-11-04T12:45:17.712Z,225
2016-11-04T12:46:17.674Z,210
2016-11-04T12:47:17.335Z,200
2016-11-04T12:48:17.297Z,200
2016-11-04T12:49:17.260Z,205
2016-11-04T12:50:17.283Z,200
2016-11-04T12:51:17.496Z,195
2016-11-04T12:52:17.465Z,195
2016-11-04T12:53:17.425Z,185
2016-11-04T12:54:17.389Z,175
2016-11-04T12:55:17.046Z,165
2016-11-04T12:56:17.016Z,165
2016-11-04T12:57:16.972Z,165
2016-11-04T12:58:17.237Z,165
2016-11-04T12:59:16.600Z,165
2016-11-04T13:00:16.874Z,165
2016-11-04T13:01:16.836Z,160
2016-11-04T13:02:16.800Z,160
2016-11-04T13:03:16.461Z,155
2016-11-04T13:04:17.032Z,150
2016-11-04T13:05:16.690Z,155
2016-11-04T13:06:16.683Z,160
2016-11-04T13:07:16.620Z,175
2016-11-04T13:08:16.285Z,185
2016-11-04T13:09:16.880Z,190
2016-11-04T13:10:16.508Z,195
2016-11-04T13:11:16.478Z,190
2016-11-04T13:12:16.139Z,190
2016-11-04T13:13:16.706Z,190
2016-11-04T13:14:16.579Z,190
2016-11-04T13:15:16.344Z,185
2016-11-04T13:16:16.293Z,190
2016-11-04T13:17:15.685Z,190
2016-11-04T13:18:15.928Z,190
2016-11-04T13:19:16.186Z,190
2016-11-04T13:20:16.154Z,185
2016-11-04T13:21:16.418Z,185
2016-11-04T13:22:16.087Z,185
2016-11-04T13:23:16.347Z,185
2016-11-04T13:24:16.314Z,185
2016-11-04T13:25:16.272Z,185
2016-11-04T13:26:16.233Z,190
2016-11-04T13:27:15.898Z,185
2016-11-04T13:28:16.173Z,185
2016-11-04T13:29:16.132Z,180
2016-11-04T13:30:15.794Z,180
2016-11-04T13:31:16.053Z,180
2016-11-04T13:32:16.024Z,180
2016-11-04T13:33:16.035Z,180
2016-11-04T13:34:15.954Z,180
2016-11-04T13:35:15.307Z,180
2016-11-04T13:36:15.875Z,180
2016-11-04T13:37:15.544Z,170
2016-11-04T13:38:15.539Z,170
2016-11-04T13:39:15.473Z,160
2016-11-04T13:40:15.135Z,155
2016-11-04T13:41:15.702Z,150
2016-11-04T13:42:15.665Z,145
2016-11-04T13:43:15.667Z,140
2016-11-04T13:44:15.638Z,140
2016-11-04T13:45:15.258Z,135
2016-11-04T13:46:15.541Z,135
2016-11-04T13:47:15.501Z,140
2016-11-04T13:48:14.864Z,145
2016-11-04T13:49:15.116Z,145
2016-11-04T13:50:15.081Z,135
2016-11-04T13:51:15.045Z,135
2016-11-04T13:52:14.704Z,140
2016-11-04T13:53:15.278Z,145
2016-11-04T13:54:14.934Z,145
2016-11-04T13:55:15.245Z,150
2016-11-04T13:56:14.867Z,145
2016-11-04T13:57:15.129Z,150
2016-11-04T13:58:15.098Z,140
2016-11-04T13:59:14.757Z,140
2016-11-04T14:00:14.768Z,135
2016-11-04T14:01:14.996Z,135
2016-11-04T14:02:14.962Z,135
2016-11-04T14:03:14.306Z,130
2016-11-04T14:04:14.883Z,125
2016-11-04T14:05:14.539Z,120
2016-11-04T14:06:14.814Z,120
2016-11-04T14:07:14.165Z,125
2016-11-04T14:08:13.840Z,120
2016-11-04T14:09:14.706Z,115
2016-11-04T14:10:14.666Z,115
2016-11-04T14:11:14.627Z,115
2016-11-04T14:12:14.293Z,110
2016-11-04T14:13:14.257Z,115
2016-11-04T14:14:13.915Z,110
2016-11-04T14:15:14.481Z,110
2016-11-04T14:16:14.445Z,110